Terminal Aerodrome Forecast
Issued by NWS

Home | Current Version | Previous Version | Text Only | Print | Product List | Glossary On
Versions: 1 2 3 4 5 6 7 8 9 10 11 12 13 14 15 16 17 18 19 20 21
000
FTUS45 KREV 191100
TAFTVL
TAF
KTVL 191120Z 1912/2012 18012G20KT P6SM VCSH SCT030 OVC050
     FM191700 19010G17KT 3SM -SHSN BKN015 OVC025
     FM192200 19008KT P6SM VCSH SCT020 OVC030=

USA.gov is the U.S. government's official web portal to all federal, state and local government web resources and services.